Time;durP1;ratioP1;P1;durP2;ratioP2;P2;SDS_P1;SDS_P2;PMS_P1;PMS_P2;Temp;Humidity;BMP_temperature;BMP_pressure;BME280_temperature;BME280_humidity;BME280_pressure;Samples;Min_cycle;Max_cycle;Signal;HPM_P1;HPM_P2
2021/05/01 00:02:13;;;;;;;16.88;3.53;;;;;;;;;;5052963;28;20032;-63
2021/05/01 00:04:40;;;;;;;10.68;3.00;;;;;;;;;;5052887;28;20017;-64
2021/05/01 00:07:07;;;;;;;9.35;3.20;;;;;;;;;;5052920;28;20102;-65
2021/05/01 00:09:34;;;;;;;10.73;3.75;;;;;;;;;;5072322;28;20017;-64
2021/05/01 00:12:01;;;;;;;14.48;3.28;;;;;;;;;;5085446;28;20107;-62
2021/05/01 00:14:28;;;;;;;18.77;4.05;;;;;;;;;;5068774;28;20615;-67
2021/05/01 00:16:56;;;;;;;29.65;3.75;;;;;;;;;;5061010;28;20484;-64
2021/05/01 00:19:23;;;;;;;19.15;3.60;;;;;;;;;;5055879;28;20492;-67
2021/05/01 00:21:50;;;;;;;17.45;3.92;;;;;;;;;;5056629;28;20027;-65
2021/05/01 00:24:17;;;;;;;14.18;4.13;;;;;;;;;;5065584;28;20040;-62
2021/05/01 00:26:44;;;;;;;11.63;3.75;;;;;;;;;;5053312;28;20016;-63
2021/05/01 00:29:11;;;;;;;12.43;3.35;;;;;;;;;;5052459;28;20100;-62
2021/05/01 00:31:39;;;;;;;13.70;3.45;;;;;;;;;;5061244;28;20091;-62
2021/05/01 00:34:06;;;;;;;10.38;3.10;;;;;;;;;;5053111;28;20063;-63
2021/05/01 00:36:33;;;;;;;12.85;3.55;;;;;;;;;;5053550;28;20025;-62
2021/05/01 00:39:00;;;;;;;18.83;3.67;;;;;;;;;;5056390;28;20029;-62
2021/05/01 00:41:27;;;;;;;16.63;3.50;;;;;;;;;;5056071;28;20452;-66
2021/05/01 00:43:55;;;;;;;12.65;3.75;;;;;;;;;;5061966;28;20127;-64
2021/05/01 00:46:22;;;;;;;13.55;3.20;;;;;;;;;;5056836;28;20028;-64
2021/05/01 00:48:49;;;;;;;18.20;3.63;;;;;;;;;;5058020;28;20029;-64
2021/05/01 00:51:16;;;;;;;20.35;3.85;;;;;;;;;;5051911;28;20025;-66
2021/05/01 00:53:43;;;;;;;15.27;3.50;;;;;;;;;;5052454;28;20049;-67
2021/05/01 00:56:10;;;;;;;16.33;3.20;;;;;;;;;;5051622;28;20029;-62
2021/05/01 00:58:37;;;;;;;16.45;4.05;;;;;;;;;;5052055;28;20104;-64
2021/05/01 01:03:35;;;;;;;14.80;3.88;;;;;;;;;;5052560;28;20040;-65
2021/05/01 01:06:02;;;;;;;18.85;3.72;;;;;;;;;;5065993;28;20024;-65
2021/05/01 01:08:29;;;;;;;11.35;3.75;;;;;;;;;;5067648;28;20048;-63
2021/05/01 01:10:56;;;;;;;13.75;3.53;;;;;;;;;;5069540;28;20506;-63
2021/05/01 01:13:23;;;;;;;14.85;3.40;;;;;;;;;;5053964;28;20059;-67
2021/05/01 01:15:50;;;;;;;11.88;3.40;;;;;;;;;;5051454;28;20055;-66
2021/05/01 01:18:17;;;;;;;13.98;3.50;;;;;;;;;;5052290;28;20025;-66
2021/05/01 01:20:44;;;;;;;25.92;3.78;;;;;;;;;;5051356;28;20443;-63
2021/05/01 01:23:12;;;;;;;16.02;3.35;;;;;;;;;;5065754;28;20101;-66
2021/05/01 01:25:39;;;;;;;11.85;3.10;;;;;;;;;;5034303;28;20051;-68
2021/05/01 01:28:07;;;;;;;10.70;2.85;;;;;;;;;;5064555;28;20033;-66
2021/05/01 01:30:35;;;;;;;11.75;3.63;;;;;;;;;;5064007;28;20109;-65
2021/05/01 01:33:12;;;;;;;27.38;3.88;;;;;;;;;;5054335;28;20025;-64
2021/05/01 01:35:40;;;;;;;11.65;3.40;;;;;;;;;;5051498;28;20028;-63
2021/05/01 01:38:07;;;;;;;14.88;3.45;;;;;;;;;;5067071;28;20037;-65
2021/05/01 01:40:37;;;;;;;15.60;3.40;;;;;;;;;;5067354;28;20021;-64
2021/05/01 01:43:05;;;;;;;11.85;3.08;;;;;;;;;;5051408;28;20412;-65
2021/05/01 01:45:32;;;;;;;17.92;3.63;;;;;;;;;;5065023;28;20027;-64
2021/05/01 01:47:59;;;;;;;21.88;3.25;;;;;;;;;;5047306;28;20019;-64
2021/05/01 01:50:27;;;;;;;14.73;3.40;;;;;;;;;;5048762;28;20472;-63
2021/05/01 01:52:55;;;;;;;15.05;3.55;;;;;;;;;;5067632;28;20471;-64
2021/05/01 01:55:22;;;;;;;13.25;3.10;;;;;;;;;;5069633;28;20020;-62
2021/05/01 01:57:49;;;;;;;13.38;3.20;;;;;;;;;;5068506;28;20044;-62
2021/05/01 02:00:17;;;;;;;19.95;3.30;;;;;;;;;;5070265;28;20017;-62
2021/05/01 02:02:44;;;;;;;12.07;2.97;;;;;;;;;;5067446;28;20735;-63
2021/05/01 02:05:12;;;;;;;13.23;3.47;;;;;;;;;;5068140;28;20021;-63
2021/05/01 02:07:40;;;;;;;12.55;2.85;;;;;;;;;;5054206;28;20393;-62
2021/05/01 02:10:07;;;;;;;8.80;3.05;;;;;;;;;;5038399;28;20025;-64
2021/05/01 02:12:37;;;;;;;15.30;3.38;;;;;;;;;;5051009;28;20017;-65
2021/05/01 02:15:10;;;;;;;12.65;3.97;;;;;;;;;;5032593;28;20028;-65
2021/05/01 02:17:42;;;;;;;18.50;2.70;;;;;;;;;;5050898;28;20043;-65
2021/05/01 02:20:10;;;;;;;15.43;3.42;;;;;;;;;;5050704;28;20100;-64
2021/05/01 02:22:37;;;;;;;17.45;2.80;;;;;;;;;;5060690;28;20071;-64
2021/05/01 02:25:06;;;;;;;17.02;2.92;;;;;;;;;;5054858;28;20028;-65
2021/05/01 02:27:34;;;;;;;12.35;2.80;;;;;;;;;;5040412;28;20840;-66
2021/05/01 02:30:01;;;;;;;16.00;2.67;;;;;;;;;;5062077;28;20090;-65
2021/05/01 02:32:29;;;;;;;12.50;2.40;;;;;;;;;;5050016;28;20063;-65
2021/05/01 02:34:56;;;;;;;11.02;2.83;;;;;;;;;;5047830;28;20055;-64
2021/05/01 02:37:23;;;;;;;19.15;3.10;;;;;;;;;;5050220;28;20392;-65
2021/05/01 02:39:51;;;;;;;9.35;2.33;;;;;;;;;;5050855;28;20021;-65
2021/05/01 02:42:18;;;;;;;8.70;2.42;;;;;;;;;;5048186;28;20379;-66
2021/05/01 02:44:46;;;;;;;12.38;2.55;;;;;;;;;;5057305;28;20040;-66
2021/05/01 02:47:13;;;;;;;9.02;2.92;;;;;;;;;;5050138;28;20025;-63
2021/05/01 02:49:40;;;;;;;11.70;2.20;;;;;;;;;;5069467;28;20472;-63
2021/05/01 02:52:07;;;;;;;12.13;2.40;;;;;;;;;;5053291;28;20561;-65
2021/05/01 02:54:35;;;;;;;14.35;2.50;;;;;;;;;;5068947;28;20618;-63
2021/05/01 02:57:02;;;;;;;12.25;3.05;;;;;;;;;;5070337;28;20139;-64
2021/05/01 02:59:29;;;;;;;9.32;2.33;;;;;;;;;;5071418;28;20098;-64
2021/05/01 03:01:56;;;;;;;17.50;2.28;;;;;;;;;;5071962;28;20024;-66
2021/05/01 03:04:23;;;;;;;18.50;2.40;;;;;;;;;;5071842;28;20027;-65
2021/05/01 03:06:50;;;;;;;14.52;1.85;;;;;;;;;;5071994;28;20487;-64
2021/05/01 03:09:17;;;;;;;8.18;2.33;;;;;;;;;;5071975;28;20071;-64
2021/05/01 03:11:44;;;;;;;14.65;2.67;;;;;;;;;;5053328;28;20029;-64
2021/05/01 03:14:11;;;;;;;9.60;1.95;;;;;;;;;;5050300;28;20021;-65
2021/05/01 03:16:38;;;;;;;6.57;1.95;;;;;;;;;;5052000;28;20029;-64
2021/05/01 03:19:05;;;;;;;8.57;2.15;;;;;;;;;;5051872;28;20112;-64
2021/05/01 03:21:32;;;;;;;9.20;2.58;;;;;;;;;;5051907;28;20017;-63
2021/05/01 03:23:59;;;;;;;8.27;2.35;;;;;;;;;;5057149;28;20026;-63
2021/05/01 03:26:26;;;;;;;10.05;2.22;;;;;;;;;;5075307;28;20062;-64
2021/05/01 03:28:53;;;;;;;6.68;2.05;;;;;;;;;;5074920;28;20028;-64
2021/05/01 03:31:20;;;;;;;9.93;1.83;;;;;;;;;;5075646;28;20070;-64
2021/05/01 03:33:47;;;;;;;6.93;2.13;;;;;;;;;;5074468;28;20021;-65
2021/05/01 03:36:15;;;;;;;9.18;2.13;;;;;;;;;;5075461;28;20031;-65
2021/05/01 03:38:42;;;;;;;7.38;1.92;;;;;;;;;;5075127;28;20067;-64
2021/05/01 03:41:09;;;;;;;6.20;1.90;;;;;;;;;;5075334;28;20035;-67
2021/05/01 03:43:36;;;;;;;8.10;2.20;;;;;;;;;;5075163;28;20058;-64
2021/05/01 03:46:03;;;;;;;2.85;1.55;;;;;;;;;;5075036;28;20024;-66
2021/05/01 03:48:30;;;;;;;5.82;1.70;;;;;;;;;;5075277;28;20048;-65
2021/05/01 03:50:57;;;;;;;5.95;2.00;;;;;;;;;;5074649;28;20039;-63
2021/05/01 03:53:24;;;;;;;6.00;1.65;;;;;;;;;;5075149;28;20488;-64
2021/05/01 03:55:51;;;;;;;4.30;1.80;;;;;;;;;;5074823;28;20403;-66
2021/05/01 03:58:18;;;;;;;4.70;1.63;;;;;;;;;;5074704;28;20043;-64
2021/05/01 04:00:45;;;;;;;5.43;1.90;;;;;;;;;;5074534;28;20473;-64
2021/05/01 04:03:12;;;;;;;5.75;2.25;;;;;;;;;;5075027;28;20025;-64
2021/05/01 04:05:39;;;;;;;8.63;1.83;;;;;;;;;;5056159;28;20056;-65
2021/05/01 04:08:06;;;;;;;5.68;1.80;;;;;;;;;;5074924;28;20548;-65
2021/05/01 04:10:34;;;;;;;5.82;1.92;;;;;;;;;;5074561;28;20029;-65
2021/05/01 04:13:01;;;;;;;5.22;1.50;;;;;;;;;;5074753;28;20025;-64
2021/05/01 04:15:29;;;;;;;3.10;1.40;;;;;;;;;;5039710;28;20488;-66
2021/05/01 04:17:55;;;;;;;7.97;1.88;;;;;;;;;;5074686;28;20064;-63
2021/05/01 04:20:23;;;;;;;5.28;1.70;;;;;;;;;;5074178;28;20028;-65
2021/05/01 04:22:50;;;;;;;3.67;1.50;;;;;;;;;;5074594;28;20545;-64
2021/05/01 04:25:17;;;;;;;7.20;1.42;;;;;;;;;;5074477;28;20060;-64
2021/05/01 04:27:44;;;;;;;5.45;1.50;;;;;;;;;;5056159;28;20028;-66
2021/05/01 04:30:12;;;;;;;5.63;1.30;;;;;;;;;;5074566;28;20053;-64
2021/05/01 04:32:39;;;;;;;5.28;1.70;;;;;;;;;;5074033;28;20066;-64
2021/05/01 04:35:07;;;;;;;4.32;1.48;;;;;;;;;;5072790;28;20025;-66
2021/05/01 04:37:34;;;;;;;3.05;1.42;;;;;;;;;;5073916;28;20036;-64
2021/05/01 04:40:01;;;;;;;6.82;1.70;;;;;;;;;;5074514;28;20024;-66
2021/05/01 04:42:28;;;;;;;3.97;1.52;;;;;;;;;;5073830;28;20021;-65
2021/05/01 04:44:55;;;;;;;5.05;1.40;;;;;;;;;;5073939;28;20021;-65
2021/05/01 04:47:22;;;;;;;5.65;1.52;;;;;;;;;;5073808;28;20036;-65
2021/05/01 04:49:49;;;;;;;3.58;1.40;;;;;;;;;;5074146;28;20032;-64
2021/05/01 04:52:16;;;;;;;3.20;1.33;;;;;;;;;;5073562;28;20039;-65
2021/05/01 04:54:43;;;;;;;2.67;1.45;;;;;;;;;;5073923;28;20043;-64
2021/05/01 04:57:10;;;;;;;3.72;1.65;;;;;;;;;;5073319;28;20131;-65
2021/05/01 04:59:37;;;;;;;2.40;1.13;;;;;;;;;;5073911;28;20021;-66
2021/05/01 05:02:05;;;;;;;3.00;1.17;;;;;;;;;;5073496;28;20076;-65
2021/05/01 05:04:32;;;;;;;4.15;1.50;;;;;;;;;;5073569;28;20040;-66
2021/05/01 05:06:59;;;;;;;4.63;1.40;;;;;;;;;;5073624;28;20028;-66
2021/05/01 05:09:26;;;;;;;4.40;1.33;;;;;;;;;;5073236;28;20361;-66
2021/05/01 05:11:53;;;;;;;3.33;1.38;;;;;;;;;;5073755;28;20430;-66
2021/05/01 05:14:20;;;;;;;5.05;1.38;;;;;;;;;;5073184;28;20108;-67
2021/05/01 05:16:47;;;;;;;2.50;1.38;;;;;;;;;;5055306;28;20097;-67
2021/05/01 05:19:14;;;;;;;2.30;1.30;;;;;;;;;;5054962;28;20032;-67
2021/05/01 05:21:41;;;;;;;5.35;1.27;;;;;;;;;;5073435;28;20031;-66
2021/05/01 05:24:08;;;;;;;3.42;1.30;;;;;;;;;;5073119;28;20494;-64
2021/05/01 05:26:35;;;;;;;2.83;1.13;;;;;;;;;;5073476;28;20024;-64
2021/05/01 05:29:02;;;;;;;5.72;1.50;;;;;;;;;;5072853;28;20123;-64
2021/05/01 05:31:29;;;;;;;2.97;1.20;;;;;;;;;;5073362;28;20031;-64
2021/05/01 05:33:56;;;;;;;2.15;1.27;;;;;;;;;;5072858;28;20075;-63
2021/05/01 05:36:23;;;;;;;4.22;1.20;;;;;;;;;;5072732;28;20138;-66
2021/05/01 05:38:50;;;;;;;2.95;1.48;;;;;;;;;;5072865;28;20030;-66
2021/05/01 05:41:17;;;;;;;4.25;1.10;;;;;;;;;;5073246;28;20048;-63
2021/05/01 05:43:44;;;;;;;4.75;1.30;;;;;;;;;;5055002;28;20494;-63
2021/05/01 05:46:13;;;;;;;2.88;1.00;;;;;;;;;;5071918;28;20024;-67
2021/05/01 05:48:40;;;;;;;1.95;0.95;;;;;;;;;;5073136;28;20021;-66
2021/05/01 05:51:08;;;;;;;2.28;1.20;;;;;;;;;;5072476;28;20024;-65
2021/05/01 05:53:35;;;;;;;2.65;1.20;;;;;;;;;;5072969;28;20017;-64
2021/05/01 05:56:02;;;;;;;2.75;1.10;;;;;;;;;;5071979;28;20032;-66
2021/05/01 05:58:29;;;;;;;2.60;1.20;;;;;;;;;;5072755;28;20507;-66
2021/05/01 06:00:56;;;;;;;3.92;1.33;;;;;;;;;;5071874;28;20025;-65
2021/05/01 06:03:24;;;;;;;3.45;1.10;;;;;;;;;;5072783;28;20021;-65
2021/05/01 06:05:53;;;;;;;2.25;1.10;;;;;;;;;;5054026;28;20403;-65
2021/05/01 06:08:20;;;;;;;6.53;1.40;;;;;;;;;;5072706;28;20108;-66
2021/05/01 06:10:47;;;;;;;3.13;1.17;;;;;;;;;;5072118;28;20021;-65
2021/05/01 06:13:16;;;;;;;5.70;1.13;;;;;;;;;;5072577;28;20464;-65
2021/05/01 06:15:44;;;;;;;5.88;1.05;;;;;;;;;;5071689;28;20046;-65
2021/05/01 06:18:12;;;;;;;2.67;0.88;;;;;;;;;;5072622;28;20031;-64
2021/05/01 06:20:39;;;;;;;2.85;1.00;;;;;;;;;;5072001;28;20040;-64
2021/05/01 06:23:06;;;;;;;2.78;1.30;;;;;;;;;;5072263;28;20029;-65
2021/05/01 06:25:35;;;;;;;6.85;1.58;;;;;;;;;;5072484;28;20380;-66
2021/05/01 06:28:02;;;;;;;6.43;1.50;;;;;;;;;;5071914;28;20035;-66
2021/05/01 06:30:29;;;;;;;4.40;1.38;;;;;;;;;;5072265;28;20388;-64
2021/05/01 06:32:56;;;;;;;1.75;0.90;;;;;;;;;;5071706;28;20407;-65
2021/05/01 06:35:24;;;;;;;1.88;1.05;;;;;;;;;;5072463;28;20024;-67
2021/05/01 06:37:52;;;;;;;4.07;1.30;;;;;;;;;;5071466;28;20431;-64
2021/05/01 06:40:24;;;;;;;5.70;1.15;;;;;;;;;;5072120;28;20538;-63
2021/05/01 06:43:04;;;;;;;3.13;1.15;;;;;;;;;;5071599;28;20048;-66
2021/05/01 06:45:33;;;;;;;2.17;1.00;;;;;;;;;;5072068;28;20060;-64
2021/05/01 06:48:07;;;;;;;2.80;1.08;;;;;;;;;;5071482;28;20381;-67
2021/05/01 06:50:34;;;;;;;4.82;1.13;;;;;;;;;;5072136;28;20051;-67
2021/05/01 06:53:02;;;;;;;3.08;1.30;;;;;;;;;;5071753;28;20024;-66
2021/05/01 06:55:30;;;;;;;1.80;0.88;;;;;;;;;;5071792;28;20024;-66
2021/05/01 06:57:58;;;;;;;4.20;0.98;;;;;;;;;;5071108;28;20052;-66
2021/05/01 07:00:26;;;;;;;3.17;1.02;;;;;;;;;;5076180;28;20473;-67
2021/05/01 07:03:03;;;;;;;4.88;0.95;;;;;;;;;;5075745;28;20526;-65
2021/05/01 07:05:30;;;;;;;6.90;1.23;;;;;;;;;;5076144;28;20031;-66
2021/05/01 07:07:57;;;;;;;2.67;1.10;;;;;;;;;;5075263;28;20028;-66
2021/05/01 07:10:25;;;;;;;2.15;1.05;;;;;;;;;;5076124;28;20029;-66
2021/05/01 07:12:52;;;;;;;4.50;1.00;;;;;;;;;;5075392;28;20028;-66
2021/05/01 07:15:20;;;;;;;4.07;1.05;;;;;;;;;;5075943;28;20039;-64
2021/05/01 07:17:51;;;;;;;3.05;0.85;;;;;;;;;;5075496;28;20063;-63
2021/05/01 07:20:19;;;;;;;1.60;1.00;;;;;;;;;;5076013;28;20016;-64
2021/05/01 07:22:46;;;;;;;2.10;1.02;;;;;;;;;;5075506;28;20472;-63
2021/05/01 07:25:15;;;;;;;3.00;1.60;;;;;;;;;;5075294;28;20063;-66
2021/05/01 07:27:52;;;;;;;1.98;0.85;;;;;;;;;;5075549;28;20503;-65
2021/05/01 07:30:20;;;;;;;2.25;1.10;;;;;;;;;;5075208;28;20079;-67
2021/05/01 07:32:49;;;;;;;4.05;1.40;;;;;;;;;;5075456;28;20050;-66
2021/05/01 07:35:18;;;;;;;1.85;0.80;;;;;;;;;;5075071;28;20021;-66
2021/05/01 07:37:46;;;;;;;6.47;0.90;;;;;;;;;;5057331;28;20086;-67
2021/05/01 07:40:13;;;;;;;3.05;1.20;;;;;;;;;;5075036;28;20021;-65
2021/05/01 07:42:43;;;;;;;3.95;1.15;;;;;;;;;;5075291;28;20032;-66
2021/05/01 07:45:18;;;;;;;4.50;0.88;;;;;;;;;;5056688;28;20065;-63
2021/05/01 07:47:45;;;;;;;1.75;0.88;;;;;;;;;;5074846;28;20519;-65
2021/05/01 07:50:13;;;;;;;1.83;0.90;;;;;;;;;;5074631;28;20029;-64
2021/05/01 07:52:40;;;;;;;1.98;0.98;;;;;;;;;;5074630;28;20055;-66
2021/05/01 07:55:07;;;;;;;2.13;0.90;;;;;;;;;;5074511;28;20100;-64
2021/05/01 07:57:34;;;;;;;2.72;0.95;;;;;;;;;;5056440;28;20508;-64
2021/05/01 08:00:01;;;;;;;1.40;0.85;;;;;;;;;;5075240;28;20388;-64
2021/05/01 08:02:28;;;;;;;3.75;0.90;;;;;;;;;;5056674;28;20038;-64
2021/05/01 08:04:55;;;;;;;3.90;1.23;;;;;;;;;;5074762;28;20025;-64
2021/05/01 08:07:22;;;;;;;1.92;1.00;;;;;;;;;;5074647;28;20071;-64
2021/05/01 08:09:49;;;;;;;4.45;1.00;;;;;;;;;;5074594;28;20103;-64
2021/05/01 08:12:16;;;;;;;2.35;0.95;;;;;;;;;;5074417;28;20024;-65
2021/05/01 08:14:43;;;;;;;4.03;0.90;;;;;;;;;;5074819;28;20028;-64
2021/05/01 08:17:10;;;;;;;2.05;0.93;;;;;;;;;;5074287;28;20033;-66
2021/05/01 08:19:37;;;;;;;3.67;1.02;;;;;;;;;;5056479;28;20028;-65
2021/05/01 08:22:04;;;;;;;5.20;1.17;;;;;;;;;;5074008;28;20465;-66
2021/05/01 08:24:31;;;;;;;3.85;0.85;;;;;;;;;;5074742;28;20021;-65
2021/05/01 08:26:58;;;;;;;1.90;1.10;;;;;;;;;;5074075;28;20075;-64
2021/05/01 08:29:25;;;;;;;1.63;0.75;;;;;;;;;;5074394;28;20514;-65
2021/05/01 08:31:52;;;;;;;2.42;0.98;;;;;;;;;;5073992;28;20029;-66
2021/05/01 08:34:19;;;;;;;1.52;0.88;;;;;;;;;;5074347;28;20024;-67
2021/05/01 08:36:46;;;;;;;2.25;0.90;;;;;;;;;;5073776;28;20032;-63
2021/05/01 08:39:13;;;;;;;1.95;0.80;;;;;;;;;;5074343;28;20020;-64
2021/05/01 08:41:40;;;;;;;4.93;1.00;;;;;;;;;;5056251;28;20043;-67
2021/05/01 08:44:11;;;;;;;3.58;1.00;;;;;;;;;;5073815;28;20597;-64
2021/05/01 08:46:39;;;;;;;2.85;0.93;;;;;;;;;;5074397;28;20139;-65
2021/05/01 08:49:09;;;;;;;2.55;1.00;;;;;;;;;;5073429;28;20047;-66
2021/05/01 08:51:41;;;;;;;2.40;1.00;;;;;;;;;;5074203;28;20031;-66
2021/05/01 08:54:10;;;;;;;2.77;0.70;;;;;;;;;;5073741;28;20078;-65
2021/05/01 08:56:37;;;;;;;1.40;0.80;;;;;;;;;;5073967;28;20036;-67
2021/05/01 08:59:04;;;;;;;1.00;0.80;;;;;;;;;;5073258;28;20048;-65
2021/05/01 09:01:31;;;;;;;3.85;1.30;;;;;;;;;;5073878;28;20017;-67
2021/05/01 09:03:59;;;;;;;1.42;0.70;;;;;;;;;;5073627;28;20047;-65
2021/05/01 09:06:26;;;;;;;3.40;0.90;;;;;;;;;;5073831;28;20035;-67
2021/05/01 09:08:57;;;;;;;1.60;0.90;;;;;;;;;;5073060;28;20024;-67
2021/05/01 09:11:38;;;;;;;1.73;0.75;;;;;;;;;;5056414;28;20028;-67
2021/05/01 09:14:18;;;;;;;3.28;1.30;;;;;;;;;;5073243;28;20480;-65
2021/05/01 09:16:56;;;;;;;2.70;1.00;;;;;;;;;;5073609;28;20047;-66
2021/05/01 09:19:32;;;;;;;1.65;0.88;;;;;;;;;;5073008;28;20070;-67
2021/05/01 09:22:06;;;;;;;2.08;0.88;;;;;;;;;;5072888;28;20024;-67
2021/05/01 09:24:33;;;;;;;3.10;1.27;;;;;;;;;;5072840;28;20020;-67
2021/05/01 09:27:01;;;;;;;2.17;0.90;;;;;;;;;;5073489;28;20024;-67
2021/05/01 09:29:30;;;;;;;1.70;0.70;;;;;;;;;;5072751;28;20024;-67
2021/05/01 09:31:58;;;;;;;1.58;0.88;;;;;;;;;;5073422;28;20029;-67
2021/05/01 09:34:44;;;;;;;1.20;0.77;;;;;;;;;;5072663;28;20025;-66
2021/05/01 09:37:11;;;;;;;1.10;0.80;;;;;;;;;;5073056;28;20542;-65
2021/05/01 09:39:49;;;;;;;1.45;0.90;;;;;;;;;;5072500;28;20060;-66
2021/05/01 09:42:16;;;;;;;1.42;0.75;;;;;;;;;;5073215;28;20383;-66
2021/05/01 09:44:44;;;;;;;3.53;0.85;;;;;;;;;;5072525;28;20058;-65
2021/05/01 09:47:18;;;;;;;2.80;0.90;;;;;;;;;;5073167;28;20415;-66
2021/05/01 09:49:46;;;;;;;2.70;0.93;;;;;;;;;;5072694;28;20056;-66
2021/05/01 09:52:14;;;;;;;1.67;0.80;;;;;;;;;;5072679;28;20070;-67
2021/05/01 09:54:42;;;;;;;3.78;0.80;;;;;;;;;;5072792;28;20020;-67
2021/05/01 09:57:11;;;;;;;2.80;0.90;;;;;;;;;;5072037;28;20076;-67
2021/05/01 09:59:50;;;;;;;1.90;1.02;;;;;;;;;;5072644;28;20031;-67
2021/05/01 10:02:22;;;;;;;1.90;1.00;;;;;;;;;;5072218;28;20056;-66
2021/05/01 10:05:08;;;;;;;2.00;0.90;;;;;;;;;;5072509;28;20439;-67
2021/05/01 10:07:37;;;;;;;2.00;1.00;;;;;;;;;;5072236;28;20029;-66
2021/05/01 10:10:05;;;;;;;3.58;1.15;;;;;;;;;;5072627;28;20017;-65
2021/05/01 10:12:36;;;;;;;1.05;0.70;;;;;;;;;;5072233;28;20025;-67
2021/05/01 10:15:24;;;;;;;1.85;0.88;;;;;;;;;;5072315;28;20017;-67
2021/05/01 10:17:51;;;;;;;2.20;0.90;;;;;;;;;;5072009;28;20119;-67
2021/05/01 10:20:19;;;;;;;2.67;1.00;;;;;;;;;;5072277;28;20017;-66
2021/05/01 10:22:47;;;;;;;2.25;0.88;;;;;;;;;;5071972;28;20482;-66
2021/05/01 10:25:28;;;;;;;0.98;0.68;;;;;;;;;;5072289;28;20074;-65
2021/05/01 10:28:01;;;;;;;1.40;0.82;;;;;;;;;;5071700;28;20035;-65
2021/05/01 10:30:54;;;;;;;2.67;1.00;;;;;;;;;;5072161;28;20020;-67
2021/05/01 10:33:25;;;;;;;2.30;0.90;;;;;;;;;;5071768;28;20036;-63
2021/05/01 10:36:02;;;;;;;3.33;0.83;;;;;;;;;;5072101;28;20056;-64
2021/05/01 10:38:29;;;;;;;1.52;0.77;;;;;;;;;;5071712;28;20289;-64
2021/05/01 10:40:58;;;;;;;1.75;0.90;;;;;;;;;;5071475;28;20017;-64
2021/05/01 10:43:26;;;;;;;1.58;0.60;;;;;;;;;;5071753;28;20030;-64
2021/05/01 10:45:57;;;;;;;1.50;0.85;;;;;;;;;;5071904;28;20138;-64
2021/05/01 10:48:25;;;;;;;4.45;0.90;;;;;;;;;;5068402;28;20108;-66
2021/05/01 10:51:02;;;;;;;4.13;0.98;;;;;;;;;;5069960;28;20688;-63
2021/05/01 10:53:29;;;;;;;1.65;1.13;;;;;;;;;;5070569;28;20025;-69
2021/05/01 10:55:56;;;;;;;2.45;1.02;;;;;;;;;;5071791;28;20418;-64
2021/05/01 10:58:36;;;;;;;3.17;0.95;;;;;;;;;;5062309;28;20048;-66
2021/05/01 11:01:04;;;;;;;2.17;0.70;;;;;;;;;;5058285;28;20032;-65
2021/05/01 11:03:31;;;;;;;2.80;0.90;;;;;;;;;;5053159;28;20585;-67
2021/05/01 11:05:59;;;;;;;4.18;0.90;;;;;;;;;;5051266;28;20017;-66
2021/05/01 11:08:33;;;;;;;4.65;1.20;;;;;;;;;;5056718;28;20025;-67
2021/05/01 11:11:02;;;;;;;4.13;0.90;;;;;;;;;;5053392;28;20048;-70
2021/05/01 11:13:30;;;;;;;6.20;1.20;;;;;;;;;;5068057;28;20025;-67
2021/05/01 11:15:59;;;;;;;4.82;1.00;;;;;;;;;;5063572;28;20388;-67
2021/05/01 11:18:26;;;;;;;2.83;1.00;;;;;;;;;;5064907;28;20465;-69
2021/05/01 11:20:59;;;;;;;9.02;1.15;;;;;;;;;;5062823;28;20021;-74
2021/05/01 11:23:35;;;;;;;2.40;1.17;;;;;;;;;;5059857;28;20037;-71
2021/05/01 11:26:03;;;;;;;2.20;0.90;;;;;;;;;;5053544;28;20021;-75
2021/05/01 11:28:31;;;;;;;7.18;0.95;;;;;;;;;;5051530;28;20104;-73
2021/05/01 11:30:58;;;;;;;10.40;1.50;;;;;;;;;;5059161;28;20025;-76
2021/05/01 11:33:27;;;;;;;3.33;1.08;;;;;;;;;;5054339;28;20534;-74
2021/05/01 11:35:54;;;;;;;3.13;1.08;;;;;;;;;;5055669;28;20055;-75
2021/05/01 11:38:40;;;;;;;3.95;1.00;;;;;;;;;;5050976;28;20033;-70
2021/05/01 11:41:11;;;;;;;3.92;1.13;;;;;;;;;;5058344;28;20420;-69
2021/05/01 11:43:40;;;;;;;4.28;0.80;;;;;;;;;;5052741;28;20029;-69
2021/05/01 11:46:16;;;;;;;5.05;1.15;;;;;;;;;;5063733;28;20105;-68
2021/05/01 11:49:01;;;;;;;3.35;1.40;;;;;;;;;;5059903;28;20070;-66
2021/05/01 11:51:51;;;;;;;4.45;1.00;;;;;;;;;;5050194;28;20074;-70
2021/05/01 11:54:34;;;;;;;12.82;1.50;;;;;;;;;;5028697;28;20166;-64
2021/05/01 11:57:19;;;;;;;3.28;1.00;;;;;;;;;;5061618;28;20045;-68
2021/05/01 11:59:47;;;;;;;5.18;1.13;;;;;;;;;;5055651;28;20048;-63
2021/05/01 12:02:17;;;;;;;6.55;1.20;;;;;;;;;;5056854;28;20481;-64
2021/05/01 12:04:48;;;;;;;3.83;1.30;;;;;;;;;;5054894;28;20088;-63
2021/05/01 12:07:25;;;;;;;4.28;1.23;;;;;;;;;;5044354;28;20024;-64
2021/05/01 12:09:53;;;;;;;3.13;1.17;;;;;;;;;;5056195;28;20420;-64
2021/05/01 12:12:21;;;;;;;6.80;1.20;;;;;;;;;;5059262;28;20166;-64
2021/05/01 12:14:49;;;;;;;4.88;0.85;;;;;;;;;;5060498;28;20028;-65
2021/05/01 12:17:16;;;;;;;6.35;1.65;;;;;;;;;;5049475;28;20652;-64
2021/05/01 12:19:45;;;;;;;5.30;1.27;;;;;;;;;;5063646;28;20127;-63
2021/05/01 12:22:27;;;;;;;4.35;1.02;;;;;;;;;;5065146;28;20029;-64
2021/05/01 12:24:55;;;;;;;6.75;1.27;;;;;;;;;;5066877;28;20032;-65
2021/05/01 12:27:40;;;;;;;6.07;1.02;;;;;;;;;;5069625;28;20027;-63
2021/05/01 12:30:07;;;;;;;4.97;1.20;;;;;;;;;;5061789;28;20484;-64
2021/05/01 12:32:34;;;;;;;2.63;0.73;;;;;;;;;;5057152;28;20150;-63
2021/05/01 12:35:05;;;;;;;4.93;1.30;;;;;;;;;;5059954;28;20024;-62
2021/05/01 12:37:32;;;;;;;6.22;1.10;;;;;;;;;;5054060;28;20085;-66
2021/05/01 12:40:04;;;;;;;5.15;1.45;;;;;;;;;;5055960;28;20024;-66
2021/05/01 12:42:33;;;;;;;4.05;1.00;;;;;;;;;;5054681;28;20117;-66
2021/05/01 12:45:00;;;;;;;3.10;0.95;;;;;;;;;;5056362;28;20029;-65
2021/05/01 12:47:37;;;;;;;6.13;1.25;;;;;;;;;;5055328;28;20021;-65
2021/05/01 12:50:30;;;;;;;3.03;1.20;;;;;;;;;;5059969;28;20055;-64
2021/05/01 12:53:26;;;;;;;2.20;0.93;;;;;;;;;;5053804;28;20033;-65
2021/05/01 12:56:11;;;;;;;7.45;1.27;;;;;;;;;;5050468;28;20064;-64
2021/05/01 12:58:38;;;;;;;5.15;1.00;;;;;;;;;;5055946;28;20491;-62
2021/05/01 13:01:22;;;;;;;5.28;1.15;;;;;;;;;;5064268;28;20045;-64
2021/05/01 13:04:21;;;;;;;6.35;0.90;;;;;;;;;;5063080;28;20025;-64
2021/05/01 13:06:54;;;;;;;4.65;1.08;;;;;;;;;;5049371;28;20554;-65
2021/05/01 13:09:22;;;;;;;4.45;1.42;;;;;;;;;;5051034;28;20060;-64
2021/05/01 13:12:02;;;;;;;2.88;1.13;;;;;;;;;;5055719;28;20057;-65
2021/05/01 13:14:30;;;;;;;3.97;0.80;;;;;;;;;;5053956;28;20037;-66
2021/05/01 13:17:02;;;;;;;3.45;1.25;;;;;;;;;;5057819;28;20036;-64
2021/05/01 13:19:30;;;;;;;2.83;0.90;;;;;;;;;;5052244;28;20112;-64
2021/05/01 13:22:09;;;;;;;6.28;1.27;;;;;;;;;;5053929;28;20025;-64
2021/05/01 13:24:38;;;;;;;2.53;1.23;;;;;;;;;;5045157;28;20135;-64
2021/05/01 13:27:07;;;;;;;3.95;1.40;;;;;;;;;;5068592;28;20473;-62
2021/05/01 13:29:38;;;;;;;22.65;1.40;;;;;;;;;;5061957;28;20029;-68
2021/05/01 13:32:06;;;;;;;6.65;1.33;;;;;;;;;;5058024;28;20485;-69
2021/05/01 13:34:37;;;;;;;3.05;1.08;;;;;;;;;;5056390;28;20053;-68
2021/05/01 13:37:05;;;;;;;5.25;0.95;;;;;;;;;;5062123;28;20056;-67
2021/05/01 13:39:35;;;;;;;6.10;1.00;;;;;;;;;;5059517;28;20029;-68
2021/05/01 13:42:05;;;;;;;11.25;1.40;;;;;;;;;;5059594;28;20032;-67
2021/05/01 13:44:45;;;;;;;10.38;1.20;;;;;;;;;;5063194;28;20089;-67
2021/05/01 13:47:25;;;;;;;2.85;1.00;;;;;;;;;;5058339;28;20028;-71
2021/05/01 13:50:01;;;;;;;2.25;0.80;;;;;;;;;;5058688;28;20021;-66
2021/05/01 13:52:29;;;;;;;2.72;1.00;;;;;;;;;;5058446;28;20025;-70
2021/05/01 13:55:15;;;;;;;6.75;1.20;;;;;;;;;;5056940;28;20055;-67
2021/05/01 13:57:42;;;;;;;3.80;1.48;;;;;;;;;;5058846;28;20063;-68
2021/05/01 14:00:10;;;;;;;4.53;1.30;;;;;;;;;;5054666;28;20488;-68
2021/05/01 14:02:38;;;;;;;6.63;1.08;;;;;;;;;;5053911;28;20029;-67
2021/05/01 14:05:07;;;;;;;5.22;1.10;;;;;;;;;;5051873;28;20197;-66
2021/05/01 14:07:34;;;;;;;4.85;1.17;;;;;;;;;;5053716;28;20021;-74
2021/05/01 14:10:02;;;;;;;5.28;1.38;;;;;;;;;;5064246;28;20688;-71
2021/05/01 14:12:33;;;;;;;4.57;1.10;;;;;;;;;;5065673;28;20506;-65
2021/05/01 14:15:00;;;;;;;9.27;1.75;;;;;;;;;;5064246;28;20058;-70
2021/05/01 14:17:29;;;;;;;9.82;1.30;;;;;;;;;;5059593;28;20036;-70
2021/05/01 14:19:56;;;;;;;6.78;1.30;;;;;;;;;;5054433;28;20024;-67
2021/05/01 14:22:24;;;;;;;3.72;1.00;;;;;;;;;;5057900;28;20037;-68
2021/05/01 14:24:51;;;;;;;6.65;1.52;;;;;;;;;;5051190;28;20061;-71
2021/05/01 14:27:19;;;;;;;18.30;3.10;;;;;;;;;;5051481;28;20033;-71
2021/05/01 14:29:57;;;;;;;8.00;2.47;;;;;;;;;;5055138;28;20113;-68
2021/05/01 14:32:25;;;;;;;13.13;2.45;;;;;;;;;;5053442;28;20028;-67
2021/05/01 14:35:00;;;;;;;10.18;2.40;;;;;;;;;;5057057;28;20031;-66
2021/05/01 14:37:28;;;;;;;15.20;2.30;;;;;;;;;;5062940;28;20037;-64
2021/05/01 14:39:56;;;;;;;8.60;2.38;;;;;;;;;;5050868;28;20028;-65
2021/05/01 14:42:24;;;;;;;9.45;2.33;;;;;;;;;;5049512;28;20017;-67
2021/05/01 14:45:02;;;;;;;10.93;2.13;;;;;;;;;;5051614;28;20059;-67
2021/05/01 14:47:30;;;;;;;11.85;2.50;;;;;;;;;;5058819;28;20029;-65
2021/05/01 14:49:57;;;;;;;8.70;2.05;;;;;;;;;;5053306;28;20021;-64
2021/05/01 14:52:50;;;;;;;8.90;2.20;;;;;;;;;;5052944;28;20033;-72
2021/05/01 14:55:28;;;;;;;11.45;2.10;;;;;;;;;;5036378;28;20037;-68
2021/05/01 14:57:55;;;;;;;6.20;2.17;;;;;;;;;;5051495;28;20071;-73